Time;durP1;ratioP1;P1;durP2;ratioP2;P2;SDS_P1;SDS_P2;PMS_P1;PMS_P2;Temp;Humidity;BMP_temperature;BMP_pressure;BME280_temperature;BME280_humidity;BME280_pressure;Samples;Min_cycle;Max_cycle;Signal;HPM_P1;HPM_P2
2022/07/27 00:01:35;;;;;;;12.35;9.15;;;;;;;18.77;61.58;93102.47;4986454;28;20500;-41
2022/07/27 00:04:01;;;;;;;13.10;10.13;;;;;;;18.69;61.19;93098.47;4981982;28;20030;-40
2022/07/27 00:06:26;;;;;;;10.45;9.25;;;;;;;18.72;60.85;93092.38;4985447;28;20029;-41
2022/07/27 00:08:52;;;;;;;12.48;10.23;;;;;;;18.24;62.72;93099.91;4984041;28;20026;-41
2022/07/27 00:11:17;;;;;;;16.40;15.02;;;;;;;18.39;62.29;93107.81;4981318;28;20045;-40
2022/07/27 00:13:43;;;;;;;11.23;9.75;;;;;;;18.42;62.58;93101.00;4984557;28;20030;-43
2022/07/27 00:16:09;;;;;;;25.17;11.10;;;;;;;18.22;63.15;93105.38;4980620;28;20037;-42
2022/07/27 00:18:34;;;;;;;15.55;10.40;;;;;;;18.08;63.55;93100.41;4982353;28;20432;-42
2022/07/27 00:21:00;;;;;;;13.13;10.25;;;;;;;18.14;62.96;93106.38;4980928;28;20023;-42
2022/07/27 00:23:25;;;;;;;29.75;11.02;;;;;;;18.25;62.94;93106.97;4982811;28;20033;-41
2022/07/27 00:25:51;;;;;;;16.50;10.75;;;;;;;18.29;63.17;93104.41;4992216;28;20061;-41
2022/07/27 00:28:16;;;;;;;12.20;10.30;;;;;;;18.25;62.93;93104.91;4992705;28;20062;-41
2022/07/27 00:30:42;;;;;;;13.27;11.00;;;;;;;18.17;63.38;93096.03;4992813;28;20042;-40
2022/07/27 00:33:07;;;;;;;12.18;10.15;;;;;;;17.84;64.47;93103.78;4992788;28;20033;-43
2022/07/27 00:35:33;;;;;;;15.07;10.30;;;;;;;18.17;63.74;93098.81;4992621;28;20030;-44
2022/07/27 00:37:58;;;;;;;11.88;9.88;;;;;;;18.05;63.74;93103.69;4990928;28;20058;-44
2022/07/27 00:40:24;;;;;;;13.73;11.57;;;;;;;17.94;64.00;93105.13;4987914;28;20037;-43
2022/07/27 00:42:49;;;;;;;14.52;9.95;;;;;;;17.98;63.96;93101.84;4992493;28;20045;-44
2022/07/27 00:45:15;;;;;;;14.50;12.27;;;;;;;17.79;64.56;93099.28;4992533;28;20034;-44
2022/07/27 00:47:40;;;;;;;16.83;10.95;;;;;;;17.92;64.36;93104.28;4992634;28;20066;-43
2022/07/27 00:50:06;;;;;;;12.18;10.98;;;;;;;17.83;64.55;93105.13;4992696;28;20030;-42
2022/07/27 00:52:33;;;;;;;12.73;11.38;;;;;;;17.82;64.50;93100.88;4992211;28;20030;-42
2022/07/27 00:54:58;;;;;;;17.25;11.35;;;;;;;18.03;63.73;93107.09;4992689;28;20419;-44
2022/07/27 00:57:25;;;;;;;14.93;13.52;;;;;;;18.00;63.80;93110.34;4992341;28;20022;-43
2022/07/27 00:59:50;;;;;;;13.65;11.15;;;;;;;17.93;63.88;93119.72;4992249;28;20125;-43
2022/07/27 01:02:16;;;;;;;11.85;10.55;;;;;;;17.89;63.90;93120.19;4991835;28;20105;-42
2022/07/27 01:04:42;;;;;;;12.27;10.82;;;;;;;17.79;63.84;93116.78;4990825;28;20041;-43
2022/07/27 01:07:08;;;;;;;14.82;10.90;;;;;;;17.83;64.41;93119.81;4992094;28;20026;-42
2022/07/27 01:12:19;;;;;;;13.85;11.43;;;;;;;17.64;64.86;93122.06;4992151;28;20037;-45
2022/07/27 01:14:46;;;;;;;18.50;12.52;;;;;;;17.49;65.44;93117.66;4991876;28;20037;-47
2022/07/27 01:17:11;;;;;;;13.18;11.27;;;;;;;17.40;65.67;93118.47;4990207;28;20022;-46
2022/07/27 01:19:37;;;;;;;12.45;10.30;;;;;;;17.50;65.13;93124.69;4990556;28;20034;-39
2022/07/27 01:22:04;;;;;;;14.75;11.95;;;;;;;17.23;65.30;93125.06;4990408;28;20030;-39
2022/07/27 01:24:29;;;;;;;12.77;11.00;;;;;;;17.30;65.33;93126.91;4990368;28;20031;-39
2022/07/27 01:26:55;;;;;;;11.95;10.70;;;;;;;17.44;65.13;93124.28;4989978;28;20038;-39
2022/07/27 01:29:20;;;;;;;13.95;11.35;;;;;;;17.41;65.51;93131.09;4989993;28;20026;-40
2022/07/27 01:31:46;;;;;;;15.55;11.13;;;;;;;17.40;65.64;93126.84;4990657;28;20121;-41
2022/07/27 01:34:11;;;;;;;14.43;12.05;;;;;;;17.40;65.55;93126.84;4991546;28;20026;-40
2022/07/27 01:36:37;;;;;;;14.63;11.82;;;;;;;17.49;65.02;93125.28;4991056;28;20026;-40
2022/07/27 01:39:03;;;;;;;12.88;11.25;;;;;;;17.18;65.56;93122.63;4991843;28;20109;-41
2022/07/27 01:41:28;;;;;;;14.05;11.68;;;;;;;17.21;65.64;93127.00;4991746;28;20033;-41
2022/07/27 01:43:54;;;;;;;13.05;11.35;;;;;;;17.03;66.11;93131.41;4991433;28;20065;-40
2022/07/27 01:46:20;;;;;;;13.93;11.23;;;;;;;17.01;66.29;93134.06;4991562;28;20094;-41
2022/07/27 01:48:45;;;;;;;14.18;10.82;;;;;;;17.24;66.14;93139.75;4991364;28;20030;-41
2022/07/27 01:51:11;;;;;;;12.25;10.43;;;;;;;17.42;64.96;93144.44;4991265;28;20037;-40
2022/07/27 01:53:36;;;;;;;12.75;10.90;;;;;;;17.23;65.51;93143.88;4991428;28;20033;-41
2022/07/27 01:56:02;;;;;;;13.13;11.07;;;;;;;17.12;65.82;93139.69;4991511;28;20031;-40
2022/07/27 01:58:27;;;;;;;14.05;11.52;;;;;;;17.33;64.76;93147.31;4991209;28;20479;-40
2022/07/27 02:00:53;;;;;;;15.07;11.32;;;;;;;17.40;64.92;93135.19;4991110;28;20030;-40
2022/07/27 02:03:18;;;;;;;12.57;10.45;;;;;;;17.38;65.42;93132.28;4991119;28;20030;-39
2022/07/27 02:05:44;;;;;;;11.30;9.27;;;;;;;17.41;64.10;93147.84;4991058;28;20026;-39
2022/07/27 02:08:09;;;;;;;12.65;10.63;;;;;;;17.48;63.71;93146.88;4990988;28;20027;-39
2022/07/27 02:10:36;;;;;;;14.90;11.13;;;;;;;17.40;64.49;93155.47;4990972;28;20069;-40
2022/07/27 02:13:01;;;;;;;17.42;12.57;;;;;;;17.29;64.81;93147.03;4990993;28;20037;-40
2022/07/27 02:15:28;;;;;;;13.68;11.27;;;;;;;17.07;65.80;93149.13;4991265;28;20030;-40
2022/07/27 02:17:54;;;;;;;13.90;12.02;;;;;;;16.82;66.73;93156.50;4991194;28;20018;-40
2022/07/27 02:20:23;;;;;;;14.85;13.20;;;;;;;16.87;66.62;93158.25;4990880;28;20040;-40
2022/07/27 02:22:49;;;;;;;40.72;37.92;;;;;;;16.77;67.31;93155.50;4990864;28;20100;-40
2022/07/27 02:25:16;;;;;;;30.27;27.58;;;;;;;16.86;67.25;93159.56;4990879;28;20038;-40
2022/07/27 02:27:41;;;;;;;32.63;22.42;;;;;;;16.80;66.90;93134.06;4990713;28;20498;-39
2022/07/27 02:30:08;;;;;;;22.05;16.95;;;;;;;16.88;66.93;93160.44;4990837;28;20030;-40
2022/07/27 02:32:34;;;;;;;26.70;24.23;;;;;;;17.05;66.80;93157.38;4990919;28;20026;-40
2022/07/27 02:34:59;;;;;;;21.15;19.27;;;;;;;16.85;67.25;93158.09;4990636;28;20031;-40
2022/07/27 02:37:25;;;;;;;30.80;21.40;;;;;;;16.92;66.93;93146.00;4990734;28;20611;-40
2022/07/27 02:39:51;;;;;;;15.07;13.48;;;;;;;16.70;67.48;93144.56;4990659;28;20030;-40
2022/07/27 02:42:17;;;;;;;18.98;17.08;;;;;;;16.80;67.46;93156.38;4991011;28;20419;-40
2022/07/27 02:44:43;;;;;;;19.42;12.65;;;;;;;16.80;67.21;93157.13;4994852;28;20038;-40
2022/07/27 02:47:08;;;;;;;15.90;11.63;;;;;;;16.70;67.96;93153.63;4994656;28;20042;-39
2022/07/27 02:49:34;;;;;;;16.58;15.07;;;;;;;16.58;67.73;93161.94;4994755;28;20029;-40
2022/07/27 02:51:59;;;;;;;15.88;13.95;;;;;;;16.49;67.96;93159.91;4994921;28;20038;-40
2022/07/27 02:54:25;;;;;;;16.52;12.80;;;;;;;16.32;68.50;93167.75;4994452;28;20080;-40
2022/07/27 02:56:51;;;;;;;13.45;11.68;;;;;;;16.51;67.55;93167.69;4994480;28;20081;-40
2022/07/27 02:59:17;;;;;;;12.88;11.52;;;;;;;16.64;67.49;93165.13;4994691;28;20560;-42
2022/07/27 03:01:43;;;;;;;15.20;11.40;;;;;;;16.70;66.82;93166.88;4994434;28;20034;-41
2022/07/27 03:04:09;;;;;;;13.27;11.45;;;;;;;16.58;67.18;93167.50;4994662;28;20030;-40
2022/07/27 03:06:34;;;;;;;18.40;11.35;;;;;;;16.64;67.27;93170.69;4994148;28;20449;-41
2022/07/27 03:09:00;;;;;;;14.43;12.20;;;;;;;16.66;67.34;93167.31;4994466;28;20030;-41
2022/07/27 03:11:26;;;;;;;16.52;11.50;;;;;;;16.73;66.66;93169.19;4994322;28;20110;-43
2022/07/27 03:13:51;;;;;;;13.90;11.75;;;;;;;16.63;66.96;93169.22;4994231;28;20105;-43
2022/07/27 03:16:17;;;;;;;15.10;11.57;;;;;;;16.38;67.77;93170.94;4994455;28;20030;-39
2022/07/27 03:18:42;;;;;;;25.15;11.98;;;;;;;16.52;67.87;93175.44;4994321;28;20030;-38
2022/07/27 03:21:08;;;;;;;16.65;15.05;;;;;;;16.63;66.80;93172.00;4994216;28;20045;-40
2022/07/27 03:23:33;;;;;;;49.88;46.33;;;;;;;16.46;67.52;93180.59;4994172;28;20144;-39
2022/07/27 03:25:59;;;;;;;14.68;12.35;;;;;;;16.55;66.50;93174.25;4994462;28;20030;-39
2022/07/27 03:28:24;;;;;;;20.85;10.98;;;;;;;16.56;66.53;93184.09;4994106;28;20022;-39
2022/07/27 03:30:49;;;;;;;23.30;12.15;;;;;;;16.37;67.84;93184.13;4994441;28;20034;-39
2022/07/27 03:33:15;;;;;;;15.80;11.35;;;;;;;16.42;67.90;93187.94;4993943;28;20467;-39
2022/07/27 03:35:41;;;;;;;17.60;12.70;;;;;;;16.32;68.52;93179.63;4993776;28;20026;-40
2022/07/27 03:38:06;;;;;;;16.63;12.00;;;;;;;16.24;68.62;93184.63;4993638;28;20483;-41
2022/07/27 03:40:32;;;;;;;18.70;12.55;;;;;;;16.22;69.00;93181.72;4993599;28;20023;-44
2022/07/27 03:42:58;;;;;;;16.13;12.00;;;;;;;16.27;69.31;93177.88;4993736;28;20038;-41
2022/07/27 03:45:24;;;;;;;19.63;11.30;;;;;;;16.44;68.97;93174.88;4993227;28;20396;-39
2022/07/27 03:47:50;;;;;;;18.88;11.60;;;;;;;16.67;68.04;93172.28;4993395;28;20495;-40
2022/07/27 03:50:16;;;;;;;16.50;12.27;;;;;;;16.53;68.21;93173.38;4993607;28;20029;-40
2022/07/27 03:52:41;;;;;;;15.75;12.50;;;;;;;16.68;66.87;93179.31;4993717;28;20033;-40
2022/07/27 03:55:07;;;;;;;14.40;11.32;;;;;;;16.77;66.38;93174.28;4993052;28;20029;-40
2022/07/27 03:57:32;;;;;;;14.82;12.18;;;;;;;16.79;66.54;93185.56;4993730;28;20018;-40
2022/07/27 03:59:58;;;;;;;23.65;11.75;;;;;;;16.78;66.46;93186.91;4993750;28;20022;-40
2022/07/27 04:02:23;;;;;;;18.77;12.13;;;;;;;16.80;66.87;93184.25;4993158;28;20496;-40
2022/07/27 04:04:49;;;;;;;19.65;10.95;;;;;;;16.93;66.63;93187.25;4996074;28;20024;-40
2022/07/27 04:07:14;;;;;;;23.45;12.80;;;;;;;16.85;67.03;93183.91;5012770;28;20028;-40
2022/07/27 04:09:40;;;;;;;17.50;12.88;;;;;;;16.67;67.62;93186.22;5012982;28;20030;-40
2022/07/27 04:12:06;;;;;;;13.73;11.20;;;;;;;16.51;68.51;93204.66;4982763;28;20511;-41
2022/07/27 04:14:31;;;;;;;13.55;11.55;;;;;;;16.53;68.53;93201.25;4973572;28;20030;-40
2022/07/27 04:16:57;;;;;;;14.32;12.15;;;;;;;16.63;68.39;93210.31;4973708;28;20023;-40
2022/07/27 04:19:22;;;;;;;18.17;12.85;;;;;;;16.67;68.46;93200.16;4972420;28;20026;-40
2022/07/27 04:21:48;;;;;;;13.80;11.50;;;;;;;16.82;68.19;93198.31;4973889;28;20037;-39
2022/07/27 04:24:13;;;;;;;17.95;12.50;;;;;;;16.94;68.59;93213.06;4973516;28;20027;-40
2022/07/27 04:26:39;;;;;;;14.15;12.45;;;;;;;16.99;68.71;93200.88;4973261;28;20050;-39
2022/07/27 04:29:04;;;;;;;14.40;12.38;;;;;;;17.16;68.59;93195.03;4973697;28;20019;-38
2022/07/27 04:31:30;;;;;;;15.93;13.30;;;;;;;17.13;68.59;93208.09;4973731;28;20035;-39
2022/07/27 04:33:56;;;;;;;16.48;13.32;;;;;;;17.19;69.11;93207.78;4973717;28;20097;-39
2022/07/27 04:36:21;;;;;;;20.23;15.88;;;;;;;17.22;69.09;93210.09;4988347;28;20119;-39
2022/07/27 04:38:47;;;;;;;19.35;15.52;;;;;;;17.21;69.11;93208.66;4953892;28;20677;-40
2022/07/27 04:41:12;;;;;;;20.73;14.77;;;;;;;17.48;68.04;93202.69;4954056;29;20034;-41
2022/07/27 04:43:38;;;;;;;25.13;15.77;;;;;;;17.44;67.17;93197.59;4953886;28;20481;-40
2022/07/27 04:46:04;;;;;;;21.20;17.15;;;;;;;17.55;68.16;93207.38;4954123;28;20103;-40
2022/07/27 04:48:34;;;;;;;31.02;28.00;;;;;;;17.54;68.17;93216.34;4953991;28;20031;-39
2022/07/27 04:50:59;;;;;;;22.05;15.38;;;;;;;17.65;68.59;93224.06;4953775;28;20504;-40
2022/07/27 04:53:25;;;;;;;23.48;16.45;;;;;;;17.74;68.13;93217.63;4953960;28;20034;-40
2022/07/27 04:55:50;;;;;;;19.33;15.68;;;;;;;17.73;68.71;93196.66;4953934;28;20103;-41
2022/07/27 04:58:16;;;;;;;20.63;16.38;;;;;;;17.93;68.50;93223.78;4953816;28;20539;-41
2022/07/27 05:00:42;;;;;;;37.45;16.67;;;;;;;17.90;68.54;93229.84;4953786;28;20114;-41
2022/07/27 05:03:08;;;;;;;31.73;15.57;;;;;;;18.02;68.90;93228.53;4953768;28;20034;-41
2022/07/27 05:05:34;;;;;;;27.92;15.15;;;;;;;18.12;68.04;93222.88;4944184;28;20075;-40
2022/07/27 05:08:00;;;;;;;19.23;15.98;;;;;;;18.19;68.79;93233.81;4943126;28;20039;-40
2022/07/27 05:10:25;;;;;;;29.83;16.42;;;;;;;18.27;68.83;93232.84;4942918;28;20114;-40
2022/07/27 05:12:51;;;;;;;24.08;16.27;;;;;;;18.42;68.61;93230.34;4943204;29;20031;-39
2022/07/27 05:15:16;;;;;;;18.08;14.27;;;;;;;18.61;68.54;93232.19;4947385;28;20046;-39
2022/07/27 05:17:42;;;;;;;17.48;14.35;;;;;;;18.70;69.15;93231.34;4948738;28;20031;-40
2022/07/27 05:20:09;;;;;;;19.58;14.25;;;;;;;18.80;68.98;93229.91;4944738;29;20034;-40
2022/07/27 05:22:34;;;;;;;20.30;17.88;;;;;;;18.85;68.17;93220.41;4944627;28;20468;-40
2022/07/27 05:25:00;;;;;;;17.92;13.93;;;;;;;18.93;67.77;93234.88;4937863;28;20032;-41
2022/07/27 05:27:25;;;;;;;25.52;19.10;;;;;;;18.96;67.96;93229.41;4941898;28;20074;-39
2022/07/27 05:29:52;;;;;;;22.80;17.67;;;;;;;19.10;68.12;93235.84;4933747;28;20027;-39
2022/07/27 05:32:17;;;;;;;24.52;17.83;;;;;;;19.27;68.91;93232.66;4933805;29;20087;-38
2022/07/27 05:34:44;;;;;;;20.90;14.50;;;;;;;19.30;67.90;93242.63;4946263;29;20038;-39
2022/07/27 05:37:10;;;;;;;15.95;13.57;;;;;;;19.42;68.46;93240.56;4961399;28;20053;-40
2022/07/27 05:39:36;;;;;;;18.75;13.77;;;;;;;19.45;68.21;93231.66;4991296;28;20023;-40
2022/07/27 05:42:03;;;;;;;15.68;13.88;;;;;;;19.63;68.76;93243.91;4991073;28;20637;-40
2022/07/27 05:44:28;;;;;;;16.92;15.13;;;;;;;19.76;68.70;93230.59;4983556;28;20033;-40
2022/07/27 05:46:55;;;;;;;19.77;16.00;;;;;;;19.89;68.28;93243.94;4983077;28;20031;-39
2022/07/27 05:49:21;;;;;;;18.77;16.73;;;;;;;20.06;68.56;93243.50;4981141;28;20655;-39
2022/07/27 05:51:46;;;;;;;18.98;15.25;;;;;;;20.19;67.20;93245.63;4979492;28;20030;-39
2022/07/27 05:54:12;;;;;;;28.63;15.63;;;;;;;20.17;66.59;93232.25;4975577;28;20581;-40
2022/07/27 05:56:37;;;;;;;26.35;16.25;;;;;;;20.37;66.26;93246.66;4971653;28;20023;-40
2022/07/27 05:59:03;;;;;;;21.63;14.60;;;;;;;20.45;66.31;93251.97;4971905;28;20054;-40
2022/07/27 06:01:28;;;;;;;18.23;14.30;;;;;;;20.54;65.53;93256.69;4977963;28;20030;-40
2022/07/27 06:03:54;;;;;;;33.20;13.50;;;;;;;20.65;64.75;93253.81;4990282;28;20026;-40
2022/07/27 06:09:17;;;;;;;17.13;12.50;;;;;;;20.82;62.00;93253.31;4957743;28;20045;-40
2022/07/27 06:11:42;;;;;;;18.00;12.40;;;;;;;20.92;60.86;93251.03;4990590;28;20026;-40
2022/07/27 06:14:08;;;;;;;15.90;12.05;;;;;;;20.94;60.30;93239.91;4991132;28;20580;-39
2022/07/27 06:16:33;;;;;;;13.95;11.50;;;;;;;21.20;60.07;93251.81;4989663;28;20038;-40
2022/07/27 06:18:59;;;;;;;22.80;10.95;;;;;;;21.34;60.21;93254.63;4990905;28;20038;-40
2022/07/27 06:21:26;;;;;;;13.23;9.77;;;;;;;21.40;57.41;93244.41;4990869;28;20030;-40
2022/07/27 06:23:53;;;;;;;11.23;9.90;;;;;;;21.48;57.25;93255.34;4991151;28;20030;-41
2022/07/27 06:26:18;;;;;;;9.80;8.07;;;;;;;21.72;55.78;93250.94;4990814;28;20117;-40
2022/07/27 06:28:44;;;;;;;10.27;7.97;;;;;;;21.77;56.57;93263.81;4990590;28;20041;-39
2022/07/27 06:31:09;;;;;;;14.32;9.02;;;;;;;21.89;56.02;93256.75;4990920;28;20431;-40
2022/07/27 06:33:34;;;;;;;12.68;9.85;;;;;;;22.05;56.34;93254.00;4990607;28;20034;-39
2022/07/27 06:36:00;;;;;;;13.05;9.23;;;;;;;22.13;55.32;93257.22;4985861;28;20112;-39
2022/07/27 06:38:27;;;;;;;9.57;8.45;;;;;;;22.15;55.62;93254.50;5005114;28;20042;-40
2022/07/27 06:40:54;;;;;;;10.80;8.65;;;;;;;22.17;55.61;93254.59;5007550;28;20054;-40
2022/07/27 06:43:26;;;;;;;18.30;10.90;;;;;;;22.22;54.97;93250.59;5010694;28;20433;-39
2022/07/27 06:45:55;;;;;;;21.08;9.55;;;;;;;22.41;54.98;93243.78;5005905;28;20038;-40
2022/07/27 06:48:20;;;;;;;;;;;;;;;22.50;54.64;93240.69;4998431;28;20036;-40
2022/07/27 06:50:46;;;;;;;13.48;9.45;;;;;;;22.46;55.66;93223.63;5010316;28;20305;-40
2022/07/27 06:53:12;;;;;;;12.80;8.50;;;;;;;22.77;53.81;93239.84;4991617;28;20113;-40
2022/07/27 06:55:38;;;;;;;11.60;9.07;;;;;;;22.91;54.96;93239.78;4977984;28;20041;-39
2022/07/27 06:58:03;;;;;;;15.55;8.98;;;;;;;22.91;53.90;93236.94;4987475;28;20033;-39
2022/07/27 07:00:29;;;;;;;9.45;8.50;;;;;;;22.99;53.97;93234.50;4988540;28;20251;-40
2022/07/27 07:02:58;;;;;;;11.05;9.05;;;;;;;23.09;52.91;93227.22;4990419;28;20030;-41
2022/07/27 07:05:23;;;;;;;12.88;9.60;;;;;;;23.02;53.63;93225.50;5005640;28;20025;-40
2022/07/27 07:07:49;;;;;;;13.38;8.55;;;;;;;23.12;53.22;93211.13;4999886;28;20041;-39
2022/07/27 07:10:15;;;;;;;15.77;8.48;;;;;;;23.34;52.80;93220.59;4980078;28;20038;-41
2022/07/27 07:12:40;;;;;;;9.52;7.97;;;;;;;23.40;51.45;93215.22;4980932;28;20042;-40
2022/07/27 07:15:06;;;;;;;15.23;9.07;;;;;;;23.62;52.01;93223.88;4983303;28;20034;-41
2022/07/27 07:17:32;;;;;;;12.60;8.30;;;;;;;23.66;53.35;93224.06;4984466;28;20019;-39
2022/07/27 07:19:57;;;;;;;12.02;7.95;;;;;;;23.86;53.23;93222.06;4990114;28;20431;-40
2022/07/27 07:22:24;;;;;;;10.30;8.15;;;;;;;23.99;52.08;93218.38;4980551;28;20125;-41
2022/07/27 07:24:50;;;;;;;9.80;7.80;;;;;;;24.01;51.23;93205.09;4980697;28;20026;-41
2022/07/27 07:27:18;;;;;;;10.65;8.65;;;;;;;24.34;51.10;93212.78;4984016;28;20467;-39
2022/07/27 07:29:44;;;;;;;8.77;7.88;;;;;;;24.54;49.00;93212.81;4986497;28;20023;-39
2022/07/27 07:32:09;;;;;;;13.45;8.50;;;;;;;24.72;48.86;93205.06;4989269;28;20048;-40
2022/07/27 07:34:35;;;;;;;8.52;7.57;;;;;;;25.13;47.34;93210.84;4991775;28;20057;-39
2022/07/27 07:37:00;;;;;;;7.95;7.13;;;;;;;25.78;47.40;93222.34;4993460;28;20101;-40
2022/07/27 07:39:26;;;;;;;7.80;7.10;;;;;;;26.91;44.42;93204.09;4993627;28;20038;-41
2022/07/27 07:41:52;;;;;;;14.25;7.40;;;;;;;27.96;42.87;93207.00;4993867;28;20042;-40
2022/07/27 07:44:18;;;;;;;8.48;7.40;;;;;;;29.10;38.20;93208.31;4982036;28;20472;-41
2022/07/27 07:46:43;;;;;;;12.38;7.05;;;;;;;30.06;35.66;93203.13;4984027;28;20058;-42
2022/07/27 07:49:09;;;;;;;9.13;7.00;;;;;;;31.13;34.14;93206.28;4998791;28;20049;-41
2022/07/27 07:51:35;;;;;;;8.20;7.28;;;;;;;32.04;33.40;93213.13;4974130;28;20034;-40
2022/07/27 07:54:00;;;;;;;7.25;6.55;;;;;;;32.65;31.35;93215.13;4981665;28;20033;-42
2022/07/27 07:56:26;;;;;;;7.63;6.75;;;;;;;32.68;30.98;93207.28;4994318;28;20092;-39
2022/07/27 07:58:51;;;;;;;7.05;6.32;;;;;;;32.44;31.28;93207.78;4993342;28;20030;-39
2022/07/27 08:01:17;;;;;;;6.90;6.30;;;;;;;32.63;31.80;93208.69;4993103;28;20018;-41
2022/07/27 08:03:42;;;;;;;7.22;6.53;;;;;;;32.83;32.45;93211.69;4991866;28;20033;-40
2022/07/27 08:06:08;;;;;;;7.75;5.65;;;;;;;32.67;31.86;93206.56;4995777;28;20026;-40
2022/07/27 08:08:33;;;;;;;7.28;6.57;;;;;;;32.72;31.47;93207.31;4973545;28;20114;-40
2022/07/27 08:10:59;;;;;;;6.75;5.90;;;;;;;33.08;31.02;93207.59;4975174;28;20035;-40
2022/07/27 08:13:24;;;;;;;6.53;5.95;;;;;;;33.09;30.32;93208.31;4997159;28;20084;-41
2022/07/27 08:15:52;;;;;;;7.47;6.00;;;;;;;33.65;30.22;93207.91;5012592;28;20029;-41
2022/07/27 08:18:18;;;;;;;8.38;5.72;;;;;;;33.65;28.61;93205.75;5012563;28;20514;-43
2022/07/27 08:20:43;;;;;;;11.63;6.15;;;;;;;33.87;29.51;93199.38;5001606;28;20030;-44
2022/07/27 08:23:11;;;;;;;7.95;5.85;;;;;;;34.61;29.32;93201.72;4992982;28;20023;-42
2022/07/27 08:25:36;;;;;;;6.33;5.80;;;;;;;34.92;27.57;93205.97;4992925;28;20022;-43
2022/07/27 08:28:02;;;;;;;7.30;5.78;;;;;;;35.63;27.67;93212.31;5004157;28;20471;-45
2022/07/27 08:30:27;;;;;;;5.85;5.30;;;;;;;35.84;25.41;93210.81;5012600;28;20109;-45
2022/07/27 08:32:57;;;;;;;7.03;5.97;;;;;;;35.87;25.32;93205.75;4993770;28;20026;-42
2022/07/27 08:35:23;;;;;;;6.70;5.35;;;;;;;35.76;24.73;93202.94;4985045;28;20030;-44
2022/07/27 08:37:49;;;;;;;6.93;5.40;;;;;;;36.36;24.55;93207.66;4986689;28;20038;-41
2022/07/27 08:40:15;;;;;;;8.63;5.82;;;;;;;36.60;24.76;93206.81;4979297;28;20093;-42
2022/07/27 08:42:42;;;;;;;6.10;5.50;;;;;;;36.99;23.30;93198.59;4990880;28;20427;-45
2022/07/27 08:45:09;;;;;;;14.52;6.90;;;;;;;36.72;24.29;93208.84;4992605;28;20084;-41
2022/07/27 08:47:36;;;;;;;7.57;5.97;;;;;;;37.33;25.01;93200.41;4992612;28;20404;-43
2022/07/27 08:50:02;;;;;;;8.32;5.63;;;;;;;38.10;23.88;93206.72;5024432;28;20076;-43
2022/07/27 08:52:28;;;;;;;4.90;4.50;;;;;;;38.12;23.07;93203.81;4976487;28;20023;-44
2022/07/27 08:54:53;;;;;;;6.55;4.65;;;;;;;37.76;22.97;93196.34;4973546;28;20023;-43
2022/07/27 08:57:20;;;;;;;5.93;4.90;;;;;;;38.19;21.49;93195.81;4991059;28;20444;-44
2022/07/27 08:59:45;;;;;;;6.40;4.90;;;;;;;38.53;21.85;93192.47;4990500;28;20752;-44
2022/07/27 09:02:12;;;;;;;7.03;4.45;;;;;;;38.42;22.26;93183.22;4987644;28;20109;-45
2022/07/27 09:04:42;;;;;;;7.10;4.37;;;;;;;39.00;21.07;93184.50;4972583;28;20456;-44
2022/07/27 09:07:07;;;;;;;6.55;4.28;;;;;;;39.02;20.99;93189.50;5009535;28;20026;-43
2022/07/27 09:09:45;;;;;;;7.00;3.67;;;;;;;39.71;20.78;93180.31;5009957;28;20091;-44
2022/07/27 09:12:11;;;;;;;6.32;4.88;;;;;;;39.93;19.46;93177.00;4998809;28;20078;-44
2022/07/27 09:14:38;;;;;;;11.40;5.15;;;;;;;40.32;19.71;93185.56;4991784;28;20030;-43
2022/07/27 09:17:25;;;;;;;4.53;4.13;;;;;;;41.23;19.20;93181.94;4991710;28;20029;-45
2022/07/27 09:20:00;;;;;;;4.88;4.45;;;;;;;41.11;18.60;93181.56;4991296;28;20034;-44
2022/07/27 09:22:51;;;;;;;4.35;4.05;;;;;;;41.09;19.50;93181.59;4991610;28;20496;-43
2022/07/27 09:25:22;;;;;;;5.68;4.43;;;;;;;41.95;18.81;93175.69;4992069;28;20036;-46
2022/07/27 09:27:48;;;;;;;4.75;4.35;;;;;;;42.01;17.64;93170.41;4991599;28;20524;-46
2022/07/27 09:30:18;;;;;;;4.28;3.97;;;;;;;42.01;17.44;93169.69;4990454;28;20027;-44
2022/07/27 09:33:01;;;;;;;16.80;5.05;;;;;;;42.57;17.93;93173.84;4991485;28;20026;-44
2022/07/27 09:35:29;;;;;;;5.90;4.30;;;;;;;42.40;17.72;93175.78;4991283;28;20022;-44
2022/07/27 09:38:16;;;;;;;8.05;3.88;;;;;;;42.18;18.36;93182.28;4990522;28;20049;-46
2022/07/27 09:40:42;;;;;;;6.18;4.15;;;;;;;42.02;17.86;93171.81;4991463;28;20415;-45
2022/07/27 09:43:11;;;;;;;6.03;4.50;;;;;;;41.45;17.63;93172.69;4991729;28;20073;-47
2022/07/27 09:45:38;;;;;;;5.78;4.40;;;;;;;41.71;17.50;93173.47;4991316;28;20036;-46
2022/07/27 09:48:19;;;;;;;45.45;6.72;;;;;;;41.76;18.67;93166.09;4990665;28;20084;-45
2022/07/27 09:51:06;;;;;;;27.83;6.47;;;;;;;41.58;19.18;93170.88;4985115;28;20038;-46
2022/07/27 09:53:33;;;;;;;6.15;4.68;;;;;;;41.61;18.27;93165.03;4971536;28;20038;-46
2022/07/27 09:56:05;;;;;;;8.10;4.90;;;;;;;41.41;18.69;93169.19;4972151;28;20027;-45
2022/07/27 09:59:00;;;;;;;5.40;4.88;;;;;;;41.46;18.47;93170.50;4979640;28;20027;-44
2022/07/27 10:01:31;;;;;;;4.47;4.10;;;;;;;41.62;18.82;93166.44;4968358;28;20039;-45
2022/07/27 10:04:03;;;;;;;7.25;4.60;;;;;;;41.42;18.13;93167.72;4991158;28;20030;-47
2022/07/27 10:06:28;;;;;;;4.75;4.35;;;;;;;40.96;19.05;93160.91;4982033;28;20037;-43
2022/07/27 10:08:55;;;;;;;5.82;4.65;;;;;;;41.07;17.83;93155.56;4989039;28;20022;-46
2022/07/27 10:11:21;;;;;;;8.50;5.07;;;;;;;39.88;19.55;93155.41;4990009;28;20077;-43
2022/07/27 10:13:48;;;;;;;5.65;5.10;;;;;;;39.74;18.40;93147.75;4990622;28;20036;-45
2022/07/27 10:16:19;;;;;;;8.63;5.35;;;;;;;39.86;20.17;93155.44;4990457;28;20554;-46
2022/07/27 10:18:55;;;;;;;8.93;5.40;;;;;;;39.99;19.52;93142.91;4989310;28;20026;-47
2022/07/27 10:21:22;;;;;;;6.40;4.97;;;;;;;39.95;19.03;93150.91;4989295;28;20027;-45
2022/07/27 10:23:54;;;;;;;4.68;4.28;;;;;;;40.10;19.68;93152.78;4989961;28;20160;-43
2022/07/27 10:26:27;;;;;;;5.15;4.72;;;;;;;40.13;19.86;93151.25;4991222;28;20135;-44
2022/07/27 10:29:03;;;;;;;9.82;5.28;;;;;;;39.88;18.65;93147.44;4990587;28;20105;-43
2022/07/27 10:31:32;;;;;;;7.25;5.20;;;;;;;39.64;19.86;93153.72;4971193;28;20415;-47
2022/07/27 10:34:00;;;;;;;6.00;5.03;;;;;;;39.26;19.96;93154.47;4971349;28;20500;-44
2022/07/27 10:36:26;;;;;;;5.97;5.35;;;;;;;39.20;19.49;93149.50;4987364;28;20027;-47
2022/07/27 10:38:55;;;;;;;5.35;4.95;;;;;;;39.15;19.50;93153.94;5001478;28;20172;-45
2022/07/27 10:41:34;;;;;;;5.65;5.20;;;;;;;39.07;21.06;93148.25;4982880;28;20038;-43
2022/07/27 10:44:17;;;;;;;5.68;5.05;;;;;;;39.39;19.71;93147.72;4988708;28;20045;-45
2022/07/27 10:46:59;;;;;;;6.65;5.82;;;;;;;39.55;20.56;93143.75;4990733;28;20038;-44
2022/07/27 10:49:27;;;;;;;7.15;6.25;;;;;;;39.40;20.72;93139.72;4990509;28;20504;-44
2022/07/27 10:51:53;;;;;;;10.00;6.25;;;;;;;39.49;20.06;93146.78;5004475;28;20034;-43
2022/07/27 10:54:31;;;;;;;8.70;5.60;;;;;;;39.85;20.98;93133.78;5004236;28;20113;-44
2022/07/27 10:56:58;;;;;;;6.82;6.10;;;;;;;39.78;20.18;93144.78;5000765;28;20022;-43
2022/07/27 10:59:38;;;;;;;13.83;7.17;;;;;;;39.35;19.51;93138.41;4984365;28;20097;-45
2022/07/27 11:02:06;;;;;;;10.55;5.70;;;;;;;38.96;21.38;93137.66;4985148;28;20533;-45
2022/07/27 11:04:32;;;;;;;12.47;9.37;;;;;;;38.88;21.60;93135.63;4992362;28;20399;-45
2022/07/27 11:06:59;;;;;;;9.50;5.93;;;;;;;39.11;19.54;93127.28;4994541;28;20030;-46
2022/07/27 11:09:39;;;;;;;14.90;5.67;;;;;;;39.61;20.04;93132.13;4994468;28;20026;-45
2022/07/27 11:12:07;;;;;;;15.52;7.20;;;;;;;39.84;19.56;93127.28;4994280;28;20026;-46
2022/07/27 11:14:50;;;;;;;6.90;5.73;;;;;;;39.73;18.72;93123.19;4992944;28;20558;-44
2022/07/27 11:17:21;;;;;;;7.05;5.82;;;;;;;39.55;20.18;93122.84;4994503;28;20494;-46
2022/07/27 11:19:58;;;;;;;13.25;8.82;;;;;;;39.30;19.76;93122.59;4992916;28;20496;-45
2022/07/27 11:22:37;;;;;;;7.80;5.97;;;;;;;39.16;21.51;93122.84;4993807;28;20034;-44
2022/07/27 11:25:04;;;;;;;8.45;7.03;;;;;;;39.17;19.02;93112.75;4994095;28;20057;-45
2022/07/27 11:27:30;;;;;;;7.22;5.90;;;;;;;39.12;22.01;93114.25;5012221;28;20024;-44
2022/07/27 11:29:56;;;;;;;7.82;6.10;;;;;;;39.01;20.32;93115.91;5004903;28;20064;-43